Time;durP1;ratioP1;P1;durP2;ratioP2;P2;SDS_P1;SDS_P2;PMS_P1;PMS_P2;Temp;Humidity;BMP_temperature;BMP_pressure;BME280_temperature;BME280_humidity;BME280_pressure;Samples;Min_cycle;Max_cycle;Signal;HPM_P1;HPM_P2
2021/09/26 00:01:17;;;;;;;19.57;12.53;;;14.90;99.90;;;;;;4100215;29;20215;-75
2021/09/26 00:03:19;;;;;;;17.77;12.20;;;14.90;99.90;;;;;;4099917;28;20225;-75
2021/09/26 00:05:20;;;;;;;20.00;12.30;;;14.90;99.90;;;;;;4100816;29;20281;-75
2021/09/26 00:07:22;;;;;;;15.63;11.07;;;14.90;99.90;;;;;;4100919;28;20223;-75
2021/09/26 00:09:24;;;;;;;16.27;11.87;;;14.90;99.90;;;;;;4100298;29;20274;-75
2021/09/26 00:11:26;;;;;;;17.43;11.40;;;14.80;99.90;;;;;;4100164;28;20259;-75
2021/09/26 00:13:27;;;;;;;17.07;11.67;;;14.80;99.90;;;;;;4100387;29;20215;-75
2021/09/26 00:15:29;;;;;;;16.97;11.73;;;14.80;99.90;;;;;;4100277;28;20605;-75
2021/09/26 00:17:33;;;;;;;17.30;12.00;;;14.80;99.90;;;;;;4100007;28;20630;-75
2021/09/26 00:19:34;;;;;;;16.50;11.60;;;14.70;99.90;;;;;;4100104;28;20217;-75
2021/09/26 00:21:36;;;;;;;19.97;11.93;;;14.70;99.90;;;;;;4100159;28;20216;-75
2021/09/26 00:23:38;;;;;;;16.97;11.63;;;14.70;99.90;;;;;;4100105;29;20680;-75
2021/09/26 00:25:40;;;;;;;18.50;11.97;;;14.70;99.90;;;;;;4100047;29;20309;-75
2021/09/26 00:27:41;;;;;;;16.23;11.33;;;14.60;99.90;;;;;;4100421;28;20230;-75
2021/09/26 00:29:43;;;;;;;16.33;11.00;;;14.60;99.90;;;;;;4099546;28;20227;-75
2021/09/26 00:31:45;;;;;;;16.20;11.17;;;14.60;99.90;;;;;;4100039;29;20696;-75
2021/09/26 00:33:48;;;;;;;18.40;11.17;;;14.60;99.90;;;;;;4113766;28;20213;-74
2021/09/26 00:35:49;;;;;;;16.23;11.33;;;14.50;99.90;;;;;;4116058;28;20230;-75
2021/09/26 00:37:51;;;;;;;18.97;11.60;;;14.50;99.90;;;;;;4115893;28;20700;-75
2021/09/26 00:39:53;;;;;;;15.30;10.80;;;14.50;99.90;;;;;;4101238;28;20756;-75
2021/09/26 00:41:55;;;;;;;17.70;11.60;;;14.40;99.90;;;;;;4099719;29;20218;-75
2021/09/26 00:43:57;;;;;;;15.53;11.60;;;14.40;99.90;;;;;;4099880;29;20245;-75
2021/09/26 00:45:59;;;;;;;18.83;11.97;;;14.40;99.90;;;;;;4099604;28;20247;-75
2021/09/26 00:48:00;;;;;;;15.27;10.50;;;14.40;99.90;;;;;;4100034;28;20244;-75
2021/09/26 00:50:05;;;;;;;16.97;11.27;;;14.30;99.90;;;;;;4099383;29;20222;-75
2021/09/26 00:52:08;;;;;;;15.93;11.10;;;14.30;99.90;;;;;;4099842;29;20681;-75
2021/09/26 00:54:10;;;;;;;17.97;11.50;;;14.30;99.90;;;;;;4099652;29;20634;-75
2021/09/26 00:56:12;;;;;;;14.57;10.73;;;14.30;99.90;;;;;;4100166;28;20297;-75
2021/09/26 00:58:14;;;;;;;17.20;11.10;;;14.30;99.90;;;;;;4099665;29;20217;-75
2021/09/26 01:00:19;;;;;;;15.80;11.00;;;14.20;99.90;;;;;;4099448;29;20594;-75
2021/09/26 01:02:20;;;;;;;15.17;10.80;;;14.20;99.90;;;;;;4100026;28;20221;-75
2021/09/26 01:04:22;;;;;;;15.73;11.27;;;14.20;99.90;;;;;;4099680;29;20585;-75
2021/09/26 01:06:44;;;;;;;14.37;10.53;;;14.10;99.90;;;;;;4099565;29;20250;-75
2021/09/26 01:08:56;;;;;;;16.03;10.93;;;14.20;99.90;;;;;;4099493;29;20716;-75
2021/09/26 01:11:05;;;;;;;15.97;11.13;;;14.10;99.90;;;;;;4099859;28;20221;-75
2021/09/26 01:13:22;;;;;;;14.50;10.43;;;14.10;99.90;;;;;;4099533;29;20217;-75
2021/09/26 01:15:43;;;;;;;16.93;11.60;;;14.10;99.90;;;;;;4098522;28;20242;-74
2021/09/26 01:17:50;;;;;;;14.37;10.97;;;14.00;99.90;;;;;;4099430;28;20213;-75
2021/09/26 01:20:30;;;;;;;17.23;11.60;;;14.10;99.90;;;;;;4099106;29;20222;-74
2021/09/26 01:22:52;;;;;;;16.97;11.47;;;14.00;99.90;;;;;;4060374;29;20220;-75
2021/09/26 01:25:20;;;;;;;17.07;11.73;;;14.00;99.90;;;;;;4099190;29;20218;-75
2021/09/26 01:27:41;;;;;;;16.20;11.57;;;14.00;99.90;;;;;;4099383;29;20683;-74
2021/09/26 01:30:16;;;;;;;15.77;11.50;;;14.00;99.90;;;;;;4098468;28;20674;-75
2021/09/26 01:32:20;;;;;;;16.27;11.07;;;13.90;99.90;;;;;;4087590;29;20295;-75
2021/09/26 01:34:25;;;;;;;15.00;10.53;;;13.90;99.90;;;;;;4099160;28;20216;-75
2021/09/26 01:36:32;;;;;;;15.83;11.20;;;13.90;99.90;;;;;;4099316;29;20300;-74
2021/09/26 01:38:39;;;;;;;16.87;10.77;;;13.90;99.90;;;;;;4099082;28;20214;-74
2021/09/26 01:40:46;;;;;;;16.97;10.90;;;13.90;99.90;;;;;;4098349;29;20218;-75
2021/09/26 01:42:50;;;;;;;16.67;10.67;;;13.80;99.90;;;;;;4099060;29;20265;-74
2021/09/26 01:44:55;;;;;;;17.50;11.57;;;13.80;99.90;;;;;;4098886;29;20237;-75
2021/09/26 01:46:59;;;;;;;17.30;11.07;;;13.80;99.90;;;;;;4099592;28;20213;-74
2021/09/26 01:49:04;;;;;;;15.57;10.73;;;13.80;99.90;;;;;;4099030;29;20222;-74
2021/09/26 01:51:07;;;;;;;15.30;10.60;;;13.70;99.90;;;;;;4098810;28;20242;-74
2021/09/26 01:53:11;;;;;;;14.77;10.83;;;13.70;99.90;;;;;;4099108;29;20576;-75
2021/09/26 01:55:13;;;;;;;18.20;11.50;;;13.70;99.90;;;;;;4098801;28;20720;-75
2021/09/26 01:57:19;;;;;;;16.97;11.83;;;13.70;99.90;;;;;;4098934;29;20280;-74
2021/09/26 01:59:23;;;;;;;15.70;11.20;;;13.70;99.90;;;;;;4099306;29;20237;-75
2021/09/26 02:01:25;;;;;;;15.07;11.03;;;13.60;99.90;;;;;;4098755;29;20217;-75
2021/09/26 02:03:29;;;;;;;15.43;11.10;;;13.60;99.90;;;;;;4099213;28;20214;-75
2021/09/26 02:05:38;;;;;;;15.70;10.63;;;13.60;99.90;;;;;;4098935;29;20234;-74
2021/09/26 02:07:43;;;;;;;17.03;11.67;;;13.50;99.90;;;;;;4099007;29;20834;-74
2021/09/26 02:09:48;;;;;;;15.53;10.77;;;13.50;99.90;;;;;;4098689;28;20252;-74
2021/09/26 02:11:50;;;;;;;17.57;11.00;;;13.50;99.90;;;;;;4103018;28;20666;-75
2021/09/26 02:14:02;;;;;;;16.60;10.87;;;13.50;99.90;;;;;;4114904;28;20572;-74
2021/09/26 02:16:05;;;;;;;15.17;10.97;;;13.40;99.90;;;;;;4114724;28;20648;-74
2021/09/26 02:18:08;;;;;;;16.17;11.07;;;13.40;99.90;;;;;;4114831;28;20277;-74
2021/09/26 02:20:13;;;;;;;15.20;11.07;;;13.40;99.90;;;;;;4107378;28;20209;-74
2021/09/26 02:22:16;;;;;;;15.43;10.80;;;13.40;99.90;;;;;;4110582;28;20217;-74
2021/09/26 02:24:18;;;;;;;15.63;11.10;;;13.40;99.90;;;;;;4109125;28;20221;-74
2021/09/26 02:26:21;;;;;;;16.27;10.97;;;13.40;99.90;;;;;;4129983;28;20239;-75
2021/09/26 02:28:23;;;;;;;15.83;11.50;;;13.40;99.90;;;;;;4131240;28;20228;-75
2021/09/26 02:30:27;;;;;;;15.03;10.73;;;13.40;99.90;;;;;;4105874;28;20304;-75
2021/09/26 02:32:30;;;;;;;17.90;12.03;;;13.40;99.90;;;;;;4114655;28;20213;-75
2021/09/26 02:34:32;;;;;;;14.17;10.67;;;13.30;99.90;;;;;;4116792;28;20216;-75
2021/09/26 02:36:35;;;;;;;16.47;11.40;;;13.30;99.90;;;;;;4113456;28;20274;-75
2021/09/26 02:38:40;;;;;;;16.27;11.47;;;13.30;99.90;;;;;;4109982;28;20216;-74
2021/09/26 02:40:49;;;;;;;15.67;11.47;;;13.30;99.90;;;;;;4108009;28;20681;-75
2021/09/26 02:43:03;;;;;;;15.27;10.87;;;13.20;99.90;;;;;;4101845;28;20217;-75
2021/09/26 02:45:10;;;;;;;14.77;10.67;;;13.30;99.90;;;;;;4101181;28;20241;-74
2021/09/26 02:47:15;;;;;;;14.93;10.80;;;13.30;99.90;;;;;;4112421;28;20216;-75
2021/09/26 02:49:17;;;;;;;15.27;10.63;;;13.30;99.90;;;;;;4117532;28;20236;-75
2021/09/26 02:51:19;;;;;;;17.07;11.37;;;13.30;99.90;;;;;;4117150;28;20221;-75
2021/09/26 02:53:24;;;;;;;16.70;11.23;;;13.30;99.90;;;;;;4117509;28;20266;-74
2021/09/26 02:55:32;;;;;;;14.50;10.80;;;13.30;99.90;;;;;;4116805;28;20276;-75
2021/09/26 02:57:35;;;;;;;17.20;10.83;;;13.20;99.90;;;;;;4117403;28;20750;-74
2021/09/26 02:59:38;;;;;;;16.93;11.50;;;13.20;99.90;;;;;;4117176;28;20212;-75
2021/09/26 03:01:49;;;;;;;15.50;10.83;;;13.20;99.90;;;;;;4117454;28;20286;-74
2021/09/26 03:03:51;;;;;;;17.00;11.33;;;13.20;99.90;;;;;;4117345;28;20315;-75
2021/09/26 03:05:54;;;;;;;15.27;11.17;;;13.20;99.90;;;;;;4104249;28;20230;-75
2021/09/26 03:07:55;;;;;;;16.90;11.23;;;13.20;99.90;;;;;;4101204;29;20672;-75
2021/09/26 03:09:58;;;;;;;15.33;10.90;;;13.20;99.90;;;;;;4100991;29;20312;-75
2021/09/26 03:12:00;;;;;;;14.87;10.93;;;13.20;99.90;;;;;;4101276;29;20668;-75
2021/09/26 03:14:02;;;;;;;14.47;10.83;;;13.10;99.90;;;;;;4100966;28;20631;-75
2021/09/26 03:16:07;;;;;;;16.33;11.03;;;13.10;99.90;;;;;;4101121;29;20317;-74
2021/09/26 03:18:09;;;;;;;15.53;11.23;;;13.10;99.90;;;;;;4101474;29;20205;-74
2021/09/26 03:20:12;;;;;;;16.43;10.70;;;13.10;99.90;;;;;;4100878;28;20621;-74
2021/09/26 03:22:14;;;;;;;16.03;10.10;;;13.10;99.90;;;;;;4101245;29;20281;-75
2021/09/26 03:24:16;;;;;;;13.40;9.90;;;13.10;99.90;;;;;;4101419;28;20240;-75
2021/09/26 03:26:19;;;;;;;13.93;10.30;;;13.10;99.90;;;;;;4100988;29;20234;-75
2021/09/26 03:28:20;;;;;;;15.20;10.83;;;13.10;99.90;;;;;;4100452;28;20212;-75
2021/09/26 03:30:22;;;;;;;14.03;10.27;;;13.10;99.90;;;;;;4115561;28;20223;-75
2021/09/26 03:32:24;;;;;;;15.53;11.17;;;13.10;99.90;;;;;;4116823;28;20664;-74
2021/09/26 03:34:26;;;;;;;13.53;10.40;;;13.10;99.90;;;;;;4116978;28;20229;-74
2021/09/26 03:36:28;;;;;;;14.13;9.93;;;13.10;99.90;;;;;;4116842;28;20307;-74
2021/09/26 03:38:29;;;;;;;13.87;10.47;;;13.10;99.90;;;;;;4109918;28;20214;-74
2021/09/26 03:40:31;;;;;;;14.10;10.40;;;13.00;99.90;;;;;;4100597;28;20257;-75
2021/09/26 03:42:35;;;;;;;15.17;10.53;;;13.10;99.90;;;;;;4100344;29;20586;-75
2021/09/26 03:44:37;;;;;;;14.97;10.00;;;13.00;99.90;;;;;;4100897;29;20287;-74
2021/09/26 03:46:39;;;;;;;14.20;10.30;;;13.00;99.90;;;;;;4100955;28;20626;-74
2021/09/26 03:48:40;;;;;;;12.30;9.73;;;13.00;99.90;;;;;;4100659;28;20210;-74
2021/09/26 03:50:43;;;;;;;15.73;10.30;;;13.00;99.90;;;;;;4100105;29;20224;-74
2021/09/26 03:52:45;;;;;;;14.13;10.53;;;13.00;99.90;;;;;;4100842;29;20219;-74
2021/09/26 03:54:50;;;;;;;14.73;9.33;;;13.00;99.90;;;;;;4100417;28;20285;-74
2021/09/26 03:56:52;;;;;;;13.70;10.13;;;13.00;99.90;;;;;;4100763;29;20233;-74
2021/09/26 03:58:55;;;;;;;15.30;10.70;;;13.00;99.90;;;;;;4100667;29;20629;-74
2021/09/26 04:00:57;;;;;;;14.53;9.97;;;13.00;99.90;;;;;;4100435;28;20589;-75
2021/09/26 04:02:58;;;;;;;15.70;10.50;;;13.00;99.90;;;;;;4100732;28;20236;-74
2021/09/26 04:05:03;;;;;;;14.70;10.50;;;12.90;99.90;;;;;;4100559;29;20213;-75
2021/09/26 04:07:05;;;;;;;14.20;9.43;;;12.90;99.90;;;;;;4100515;29;20218;-75
2021/09/26 04:09:10;;;;;;;14.67;9.83;;;12.90;99.90;;;;;;4100498;28;20673;-74
2021/09/26 04:11:15;;;;;;;16.27;10.60;;;12.90;99.90;;;;;;4100151;29;20669;-75
2021/09/26 04:13:16;;;;;;;14.23;9.90;;;12.90;99.90;;;;;;4100873;28;20605;-74
2021/09/26 04:15:21;;;;;;;16.37;10.27;;;12.90;99.90;;;;;;4100136;29;20267;-75
2021/09/26 04:17:23;;;;;;;14.30;10.30;;;12.90;99.90;;;;;;4100253;29;20225;-75
2021/09/26 04:19:24;;;;;;;13.90;10.03;;;12.90;99.90;;;;;;4100191;29;20909;-74
2021/09/26 04:21:26;;;;;;;14.07;9.83;;;12.90;99.90;;;;;;4100385;28;20221;-75
2021/09/26 04:23:28;;;;;;;14.83;10.03;;;12.90;99.90;;;;;;4100162;28;20227;-74
2021/09/26 04:25:32;;;;;;;13.43;9.40;;;12.90;99.90;;;;;;4100011;29;20237;-75
2021/09/26 04:27:33;;;;;;;15.47;10.27;;;12.90;99.90;;;;;;4100097;29;20243;-74
2021/09/26 04:29:35;;;;;;;15.50;10.03;;;12.90;99.90;;;;;;4099257;28;20237;-74
2021/09/26 04:31:41;;;;;;;13.57;9.77;;;12.90;99.90;;;;;;4099641;28;20441;-75
2021/09/26 04:33:42;;;;;;;12.80;9.30;;;12.90;99.90;;;;;;4113295;28;20585;-74
2021/09/26 04:35:44;;;;;;;13.00;9.63;;;13.00;99.90;;;;;;4115863;28;20240;-74
2021/09/26 04:37:50;;;;;;;12.90;9.10;;;13.00;99.90;;;;;;4101007;28;20219;-74
2021/09/26 04:39:52;;;;;;;13.40;9.80;;;13.00;99.90;;;;;;4099626;29;20213;-75
2021/09/26 04:41:58;;;;;;;13.00;9.73;;;13.00;99.90;;;;;;4099865;28;20742;-75
2021/09/26 04:44:03;;;;;;;14.07;10.07;;;13.10;99.90;;;;;;4099961;29;20217;-75
2021/09/26 04:46:05;;;;;;;16.80;9.97;;;13.10;99.90;;;;;;4099974;28;20247;-74
2021/09/26 04:48:08;;;;;;;13.30;10.10;;;13.10;99.90;;;;;;4099798;29;20590;-77
2021/09/26 04:50:11;;;;;;;11.93;9.30;;;13.10;99.90;;;;;;4099161;28;20324;-75
2021/09/26 04:52:13;;;;;;;13.70;9.33;;;13.10;99.90;;;;;;4100976;28;20213;-75
2021/09/26 04:54:15;;;;;;;12.30;9.20;;;13.10;99.90;;;;;;4115683;28;20419;-74
2021/09/26 04:56:19;;;;;;;13.37;9.73;;;13.20;99.90;;;;;;4115421;28;20232;-75
2021/09/26 04:58:20;;;;;;;12.43;9.17;;;13.20;99.90;;;;;;4115497;28;20223;-75
2021/09/26 05:00:23;;;;;;;13.33;9.03;;;13.20;99.90;;;;;;4115275;28;20209;-75
2021/09/26 05:02:24;;;;;;;14.87;9.60;;;13.20;99.90;;;;;;4111856;28;20213;-74
2021/09/26 05:04:30;;;;;;;12.57;9.07;;;13.20;99.90;;;;;;4099530;29;20217;-75
2021/09/26 05:06:32;;;;;;;13.00;9.23;;;13.20;99.90;;;;;;4099564;29;20238;-75
2021/09/26 05:08:33;;;;;;;13.07;8.73;;;13.30;99.90;;;;;;4099617;29;20265;-74
2021/09/26 05:10:35;;;;;;;12.97;9.43;;;13.20;99.90;;;;;;4099024;29;20300;-75
2021/09/26 05:12:37;;;;;;;13.47;9.40;;;13.20;99.90;;;;;;4099935;28;20214;-74
2021/09/26 05:14:39;;;;;;;14.40;9.10;;;13.20;99.90;;;;;;4099444;29;20213;-75
2021/09/26 05:16:40;;;;;;;13.07;9.17;;;13.20;99.90;;;;;;4099780;28;20237;-75
2021/09/26 05:18:42;;;;;;;14.00;9.70;;;13.20;99.90;;;;;;4099378;29;20272;-74
2021/09/26 05:20:52;;;;;;;13.63;8.73;;;13.20;99.90;;;;;;4098958;29;20241;-75
2021/09/26 05:22:54;;;;;;;13.03;9.13;;;13.20;99.90;;;;;;4099338;29;20217;-75
2021/09/26 05:24:56;;;;;;;12.87;8.87;;;13.20;99.90;;;;;;4099297;29;20241;-75
2021/09/26 05:26:57;;;;;;;12.77;9.07;;;13.20;99.90;;;;;;4099751;28;20367;-74
2021/09/26 05:29:06;;;;;;;13.40;9.17;;;13.20;99.90;;;;;;4099353;29;20221;-75
2021/09/26 05:31:10;;;;;;;13.50;9.20;;;13.20;99.90;;;;;;4099118;29;20205;-74
2021/09/26 05:33:12;;;;;;;13.10;9.40;;;13.20;99.90;;;;;;4108246;28;20216;-74
2021/09/26 05:35:14;;;;;;;12.57;9.20;;;13.20;99.90;;;;;;4115121;28;20642;-75
2021/09/26 05:37:17;;;;;;;12.27;8.43;;;13.20;99.90;;;;;;4101774;28;20572;-74
2021/09/26 05:39:21;;;;;;;11.73;8.77;;;13.20;99.90;;;;;;4099311;29;20221;-74
2021/09/26 05:41:23;;;;;;;13.20;9.07;;;13.30;99.90;;;;;;4098981;29;20487;-75
2021/09/26 05:43:25;;;;;;;12.67;9.47;;;13.30;99.90;;;;;;4099287;29;20810;-75
2021/09/26 05:45:26;;;;;;;13.07;9.50;;;13.30;99.90;;;;;;4099932;28;20807;-75
2021/09/26 05:47:28;;;;;;;11.57;9.23;;;13.40;99.90;;;;;;4098407;29;20681;-75
2021/09/26 05:49:30;;;;;;;12.43;8.80;;;13.40;99.90;;;;;;4098589;29;20697;-75
2021/09/26 05:51:32;;;;;;;11.87;8.67;;;13.40;99.90;;;;;;4099259;29;20711;-75
2021/09/26 05:53:35;;;;;;;13.37;9.37;;;13.50;99.90;;;;;;4099699;28;20214;-75
2021/09/26 05:55:37;;;;;;;14.80;9.20;;;13.50;99.90;;;;;;4098970;29;20229;-75
2021/09/26 05:57:38;;;;;;;12.97;9.50;;;13.60;99.90;;;;;;4099204;28;20219;-75
2021/09/26 05:59:40;;;;;;;13.47;9.33;;;13.60;99.90;;;;;;4098959;29;20685;-75
2021/09/26 06:01:42;;;;;;;12.87;8.83;;;13.60;99.90;;;;;;4100108;28;20253;-75
2021/09/26 06:03:44;;;;;;;13.73;9.30;;;13.70;99.90;;;;;;4117660;28;20564;-75
2021/09/26 06:05:46;;;;;;;12.73;8.87;;;13.70;99.90;;;;;;4118244;28;20233;-75
2021/09/26 06:07:47;;;;;;;12.20;8.87;;;13.70;99.90;;;;;;4118484;28;20704;-75
2021/09/26 06:09:51;;;;;;;12.30;8.73;;;13.70;99.90;;;;;;4117389;28;20299;-74
2021/09/26 06:11:52;;;;;;;11.17;8.53;;;13.80;99.90;;;;;;4118204;28;20217;-75
2021/09/26 06:13:56;;;;;;;11.53;8.30;;;13.80;99.90;;;;;;4118062;28;20224;-75
2021/09/26 06:15:59;;;;;;;13.03;8.93;;;13.80;99.90;;;;;;4118010;28;20233;-75
2021/09/26 06:18:01;;;;;;;11.13;8.77;;;13.80;99.90;;;;;;4118438;28;20213;-75
2021/09/26 06:20:03;;;;;;;11.67;8.73;;;13.80;99.90;;;;;;4103480;28;20257;-75
2021/09/26 06:22:05;;;;;;;11.13;8.57;;;13.90;99.90;;;;;;4102294;29;20213;-75
2021/09/26 06:24:07;;;;;;;12.60;8.40;;;13.90;99.90;;;;;;4101973;29;20595;-75
2021/09/26 06:26:10;;;;;;;12.50;8.73;;;13.90;99.90;;;;;;4101924;28;20241;-75
2021/09/26 06:28:11;;;;;;;12.20;8.90;;;14.00;99.90;;;;;;4102785;28;20325;-75
2021/09/26 06:30:14;;;;;;;11.40;8.53;;;14.00;99.90;;;;;;4101547;29;20285;-75
2021/09/26 06:32:15;;;;;;;11.80;8.57;;;14.00;99.90;;;;;;4103527;28;20569;-75
2021/09/26 06:34:17;;;;;;;14.00;8.23;;;14.00;99.90;;;;;;4117867;28;20224;-75
2021/09/26 06:36:19;;;;;;;13.50;8.53;;;14.10;99.90;;;;;;4113881;28;20232;-75
2021/09/26 06:38:21;;;;;;;11.17;8.30;;;14.20;99.90;;;;;;4101866;29;20268;-75
2021/09/26 06:40:23;;;;;;;10.30;8.17;;;14.20;99.90;;;;;;4101411;29;20223;-75
2021/09/26 06:42:26;;;;;;;12.00;8.50;;;14.20;99.90;;;;;;4101805;29;20269;-75
2021/09/26 06:44:28;;;;;;;11.83;8.40;;;14.30;99.90;;;;;;4101814;29;20211;-76
2021/09/26 06:46:30;;;;;;;10.07;8.23;;;14.30;99.90;;;;;;4102094;28;20245;-75
2021/09/26 06:48:31;;;;;;;11.53;8.10;;;14.30;99.90;;;;;;4101743;29;20218;-75
2021/09/26 06:50:33;;;;;;;10.40;7.83;;;14.40;99.90;;;;;;4101347;28;20580;-75
2021/09/26 06:52:36;;;;;;;11.67;8.33;;;14.40;99.90;;;;;;4101691;28;20215;-75
2021/09/26 06:54:37;;;;;;;13.20;8.70;;;14.40;99.90;;;;;;4101555;29;20220;-75
2021/09/26 06:56:39;;;;;;;12.27;8.30;;;14.40;99.90;;;;;;4101769;28;20241;-74
2021/09/26 06:58:42;;;;;;;13.20;7.53;;;14.50;99.90;;;;;;4101769;28;20280;-77
2021/09/26 07:00:44;;;;;;;10.37;7.80;;;14.50;99.90;;;;;;4101353;28;20670;-75
2021/09/26 07:02:46;;;;;;;10.40;7.63;;;14.60;99.90;;;;;;4101480;29;20925;-75
2021/09/26 07:04:47;;;;;;;10.30;7.53;;;14.60;99.90;;;;;;4101302;28;20694;-75
2021/09/26 07:06:49;;;;;;;10.60;7.53;;;14.60;99.90;;;;;;4101511;28;20235;-75
2021/09/26 07:08:51;;;;;;;10.53;7.60;;;14.70;99.90;;;;;;4101409;28;20212;-76
2021/09/26 07:10:52;;;;;;;11.83;7.93;;;14.60;99.90;;;;;;4101017;29;20238;-75
2021/09/26 07:12:54;;;;;;;14.43;8.10;;;14.80;99.90;;;;;;4101385;28;20633;-75
2021/09/26 07:15:01;;;;;;;9.50;7.13;;;14.70;99.90;;;;;;4100967;28;20224;-75
2021/09/26 07:17:03;;;;;;;11.03;7.73;;;14.80;99.90;;;;;;4101427;29;20221;-75
2021/09/26 07:19:04;;;;;;;11.37;8.03;;;14.80;99.90;;;;;;4101174;29;20224;-75
2021/09/26 07:21:06;;;;;;;12.50;8.70;;;14.80;99.90;;;;;;4101060;29;20571;-75
2021/09/26 07:23:08;;;;;;;13.30;9.47;;;14.80;99.90;;;;;;4101668;28;20220;-75
2021/09/26 07:25:10;;;;;;;14.70;9.00;;;14.80;99.90;;;;;;4101162;28;20247;-75
2021/09/26 07:27:15;;;;;;;11.47;8.83;;;14.90;99.90;;;;;;4101275;28;20247;-75
2021/09/26 07:29:17;;;;;;;12.07;8.30;;;14.90;99.90;;;;;;4100422;28;20297;-74
2021/09/26 07:31:20;;;;;;;10.40;7.93;;;14.90;99.90;;;;;;4100885;29;20218;-76
2021/09/26 07:33:22;;;;;;;12.10;8.00;;;15.00;99.90;;;;;;4111607;28;20215;-75
2021/09/26 07:35:24;;;;;;;11.27;7.67;;;15.00;99.90;;;;;;4116972;28;20868;-75
2021/09/26 07:37:25;;;;;;;11.83;7.60;;;15.10;99.90;;;;;;4105042;28;20679;-76
2021/09/26 07:39:27;;;;;;;10.03;7.47;;;15.10;99.90;;;;;;4100667;29;20211;-76
2021/09/26 07:41:29;;;;;;;10.83;7.30;;;15.10;99.90;;;;;;4100881;28;20685;-77
2021/09/26 07:43:31;;;;;;;9.87;7.50;;;15.20;99.90;;;;;;4100718;28;20235;-76
2021/09/26 07:45:33;;;;;;;11.17;7.60;;;15.20;99.90;;;;;;4100975;28;20273;-77
2021/09/26 07:47:37;;;;;;;11.87;7.83;;;15.20;99.90;;;;;;4100759;29;20220;-77
2021/09/26 07:49:39;;;;;;;11.23;7.90;;;15.30;99.90;;;;;;4100378;29;20283;-77
2021/09/26 07:51:41;;;;;;;10.40;8.00;;;15.30;99.90;;;;;;4100595;28;20237;-76
2021/09/26 07:53:42;;;;;;;10.50;8.17;;;15.40;99.90;;;;;;4101167;28;20272;-76
2021/09/26 07:55:44;;;;;;;10.83;8.37;;;15.50;99.90;;;;;;4116950;28;20444;-76
2021/09/26 07:57:46;;;;;;;13.83;9.47;;;15.60;99.90;;;;;;4116601;28;20265;-75
2021/09/26 07:59:48;;;;;;;12.27;8.70;;;15.60;99.90;;;;;;4116228;28;20212;-76
2021/09/26 08:01:50;;;;;;;11.30;8.20;;;15.80;99.90;;;;;;4116510;28;20268;-75
2021/09/26 08:03:53;;;;;;;11.33;7.67;;;15.90;99.90;;;;;;4102642;28;20273;-75
2021/09/26 08:05:55;;;;;;;9.60;7.40;;;16.00;99.90;;;;;;4100466;29;20234;-76
2021/09/26 08:07:56;;;;;;;10.40;7.73;;;16.10;99.90;;;;;;4100496;28;20228;-76
2021/09/26 08:09:58;;;;;;;8.43;6.70;;;16.20;99.90;;;;;;4100167;29;20214;-76
2021/09/26 08:12:00;;;;;;;10.17;7.30;;;16.30;99.90;;;;;;4100292;28;20288;-76
2021/09/26 08:14:01;;;;;;;9.70;7.30;;;16.40;99.90;;;;;;4100303;29;20273;-76
2021/09/26 08:16:03;;;;;;;9.47;6.77;;;16.50;99.90;;;;;;4105370;28;20225;-77
2021/09/26 08:18:05;;;;;;;9.70;6.97;;;16.60;99.90;;;;;;4107910;28;20214;-76
2021/09/26 08:20:10;;;;;;;8.80;6.53;;;16.80;99.90;;;;;;4109976;28;20483;-76
2021/09/26 08:22:11;;;;;;;8.03;6.63;;;16.90;99.90;;;;;;4108616;28;20673;-76
2021/09/26 08:24:13;;;;;;;8.33;5.93;;;17.00;99.90;;;;;;4108134;28;20276;-75
2021/09/26 08:26:15;;;;;;;8.27;6.50;;;17.10;99.90;;;;;;4104588;28;20229;-76
2021/09/26 08:28:16;;;;;;;10.87;7.10;;;17.10;99.90;;;;;;4105073;28;20642;-75
2021/09/26 08:30:19;;;;;;;9.57;7.30;;;17.20;99.90;;;;;;4104537;28;20785;-76
2021/09/26 08:32:21;;;;;;;8.27;6.30;;;17.30;99.90;;;;;;4102101;28;20218;-77
2021/09/26 08:34:23;;;;;;;9.93;6.67;;;17.30;99.90;;;;;;4108641;28;20238;-76
2021/09/26 08:36:26;;;;;;;8.30;6.07;;;17.40;99.90;;;;;;4107508;28;20651;-76
2021/09/26 08:38:28;;;;;;;6.40;5.23;;;17.40;99.90;;;;;;4115773;28;20216;-76
2021/09/26 08:40:31;;;;;;;7.30;5.20;;;17.50;99.90;;;;;;4108282;28;20269;-76
2021/09/26 08:42:34;;;;;;;6.73;4.90;;;17.60;99.90;;;;;;4098668;28;20212;-76
2021/09/26 08:44:35;;;;;;;8.27;6.10;;;17.70;99.90;;;;;;4106247;28;20267;-76
2021/09/26 08:46:37;;;;;;;10.00;6.90;;;17.90;99.90;;;;;;4110619;28;20682;-76
2021/09/26 08:48:39;;;;;;;8.97;6.80;;;18.00;99.90;;;;;;4111542;28;20679;-76
2021/09/26 08:50:43;;;;;;;8.27;6.30;;;18.10;99.90;;;;;;4108150;28;20287;-77
2021/09/26 08:52:46;;;;;;;9.97;6.00;;;18.30;99.90;;;;;;4102855;28;20220;-76
2021/09/26 08:54:49;;;;;;;8.80;6.33;;;18.40;99.90;;;;;;4108761;28;20208;-76
2021/09/26 08:56:51;;;;;;;8.47;6.47;;;18.50;99.90;;;;;;4108658;28;20209;-76
2021/09/26 08:58:53;;;;;;;7.73;6.43;;;18.60;99.90;;;;;;4107036;28;20225;-76
2021/09/26 09:00:55;;;;;;;8.83;6.30;;;18.70;99.90;;;;;;4105668;28;20201;-77
2021/09/26 09:02:58;;;;;;;8.90;6.20;;;18.70;99.90;;;;;;4107664;28;20260;-77
2021/09/26 09:04:59;;;;;;;7.47;5.50;;;18.80;99.90;;;;;;4108424;28;20664;-76
2021/09/26 09:07:03;;;;;;;7.20;5.77;;;18.90;99.90;;;;;;4107450;28;20656;-76
2021/09/26 09:09:08;;;;;;;7.70;5.37;;;18.90;99.90;;;;;;4108764;28;20689;-76
2021/09/26 09:11:11;;;;;;;9.93;6.57;;;18.90;99.90;;;;;;4106544;28;20221;-76
2021/09/26 09:13:15;;;;;;;11.07;7.80;;;19.00;99.90;;;;;;4108224;28;20212;-76
2021/09/26 09:15:22;;;;;;;14.13;8.60;;;19.00;99.90;;;;;;4106483;28;20234;-76
2021/09/26 09:17:33;;;;;;;14.50;8.83;;;19.10;99.90;;;;;;4099434;28;20206;-76
2021/09/26 09:19:37;;;;;;;12.90;8.63;;;19.10;99.90;;;;;;4106232;28;20219;-76
2021/09/26 09:21:41;;;;;;;10.53;7.50;;;19.20;99.90;;;;;;4105984;28;20620;-77
2021/09/26 09:23:43;;;;;;;7.70;6.27;;;19.20;99.90;;;;;;4102970;28;20314;-76
2021/09/26 09:25:48;;;;;;;9.80;6.60;;;19.30;99.90;;;;;;4107551;28;20256;-76
2021/09/26 09:27:50;;;;;;;6.90;5.60;;;19.30;99.90;;;;;;4106885;28;20253;-76
2021/09/26 09:29:52;;;;;;;6.67;5.17;;;19.40;99.90;;;;;;4107285;28;20211;-76
2021/09/26 09:31:55;;;;;;;6.43;5.43;;;19.50;99.90;;;;;;4105357;28;20238;-76
2021/09/26 09:33:57;;;;;;;7.30;5.57;;;19.60;99.90;;;;;;4111109;28;20216;-76
2021/09/26 09:35:59;;;;;;;8.23;5.53;;;19.60;99.90;;;;;;4103073;28;20248;-78
2021/09/26 09:38:01;;;;;;;8.87;5.23;;;19.70;99.90;;;;;;4103358;28;20247;-77
2021/09/26 09:40:09;;;;;;;8.83;6.20;;;19.70;99.90;;;;;;4099032;28;20592;-77
2021/09/26 09:42:20;;;;;;;6.97;5.20;;;19.80;99.90;;;;;;4100137;28;20214;-77
2021/09/26 09:44:37;;;;;;;6.87;5.50;;;19.90;99.90;;;;;;4101035;28;20592;-77
2021/09/26 09:46:41;;;;;;;6.23;5.20;;;20.00;99.90;;;;;;4101873;28;20244;-76
2021/09/26 09:48:43;;;;;;;6.67;5.03;;;20.10;99.90;;;;;;4100057;28;20217;-77
2021/09/26 09:50:52;;;;;;;7.17;5.13;;;20.10;99.90;;;;;;4104104;28;20610;-77
2021/09/26 09:52:54;;;;;;;6.57;5.10;;;20.20;99.90;;;;;;4108046;28;20209;-77
2021/09/26 09:54:55;;;;;;;7.00;5.10;;;20.30;99.90;;;;;;4102745;28;20222;-77
2021/09/26 09:56:59;;;;;;;6.40;4.83;;;20.40;99.90;;;;;;4104911;28;20221;-77
2021/09/26 09:59:02;;;;;;;6.43;5.10;;;20.40;99.90;;;;;;4100067;28;20645;-76
2021/09/26 10:01:06;;;;;;;7.20;5.00;;;20.50;99.90;;;;;;4100952;28;20677;-77
2021/09/26 10:03:33;;;;;;;7.00;5.30;;;20.60;99.90;;;;;;4102295;28;20217;-75
2021/09/26 10:05:35;;;;;;;6.00;4.90;;;20.70;99.90;;;;;;4109027;28;20283;-75
2021/09/26 10:07:42;;;;;;;6.47;5.20;;;20.80;99.90;;;;;;4109076;28;20217;-75
2021/09/26 10:09:44;;;;;;;7.40;5.23;;;20.90;99.90;;;;;;4105879;28;20640;-76
2021/09/26 10:11:47;;;;;;;6.27;5.20;;;21.00;99.90;;;;;;4107976;28;20237;-76
2021/09/26 10:13:49;;;;;;;6.13;4.80;;;21.10;99.90;;;;;;4101825;28;20670;-76
2021/09/26 10:15:52;;;;;;;6.53;5.07;;;21.20;99.90;;;;;;4109183;28;20249;-76
2021/09/26 10:17:54;;;;;;;5.93;4.70;;;21.20;99.90;;;;;;4108826;28;20222;-76
2021/09/26 10:19:56;;;;;;;7.33;5.00;;;21.40;99.90;;;;;;4103492;28;20211;-76
2021/09/26 10:22:00;;;;;;;6.50;5.13;;;21.40;99.90;;;;;;4103704;28;20205;-75
2021/09/26 10:24:02;;;;;;;5.90;4.73;;;21.50;99.90;;;;;;4104979;28;20258;-75
2021/09/26 10:26:04;;;;;;;6.60;5.00;;;21.60;99.90;;;;;;4108516;28;20317;-76
2021/09/26 10:28:05;;;;;;;7.47;4.97;;;21.70;99.90;;;;;;4105858;28;20210;-75
2021/09/26 10:30:09;;;;;;;6.07;5.30;;;21.80;99.90;;;;;;4108076;28;20261;-75
2021/09/26 10:32:13;;;;;;;5.93;4.93;;;21.90;99.90;;;;;;4105837;28;20230;-75
2021/09/26 10:34:20;;;;;;;8.23;5.07;;;22.00;99.90;;;;;;4103170;28;20212;-76